Time;durP1;ratioP1;P1;durP2;ratioP2;P2;SDS_P1;SDS_P2;PMS_P1;PMS_P2;Temp;Humidity;BMP_temperature;BMP_pressure;BME280_temperature;BME280_humidity;BME280_pressure;Samples;Min_cycle;Max_cycle;Signal;HPM_P1;HPM_P2
2023/03/06 00:01:05;;;;;;;9.23;5.05;;;-1.00;99.90;;;;;;4976033;28;20023;-79
2023/03/06 00:03:32;;;;;;;7.47;4.60;;;-1.00;99.90;;;;;;4963185;28;20042;-79
2023/03/06 00:05:58;;;;;;;8.02;4.47;;;-1.00;99.90;;;;;;4977379;28;20032;-79
2023/03/06 00:08:25;;;;;;;6.65;4.30;;;-0.90;99.90;;;;;;4974149;28;20469;-78
2023/03/06 00:10:51;;;;;;;6.53;3.92;;;-0.90;99.90;;;;;;4967365;28;20062;-79
2023/03/06 00:13:18;;;;;;;5.85;4.55;;;-0.90;99.90;;;;;;4975564;28;20030;-79
2023/03/06 00:15:45;;;;;;;6.47;4.10;;;-0.80;99.90;;;;;;4967979;28;20027;-78
2023/03/06 00:18:11;;;;;;;6.03;3.65;;;-0.80;99.90;;;;;;4966322;28;20024;-79
2023/03/06 00:20:42;;;;;;;4.60;3.20;;;-0.80;99.90;;;;;;4968602;28;20073;-78
2023/03/06 00:23:09;;;;;;;4.68;3.17;;;-0.80;99.90;;;;;;4946055;28;20110;-79
2023/03/06 00:25:37;;;;;;;;;;;-0.80;99.90;;;;;;4959038;28;20022;-79
2023/03/06 00:28:06;;;;;;;4.85;3.22;;;-0.80;99.90;;;;;;4956646;28;19911;-78
2023/03/06 00:30:34;;;;;;;5.97;3.10;;;-0.80;99.90;;;;;;4958903;28;20086;-78
2023/03/06 00:33:00;;;;;;;5.90;3.03;;;-0.80;99.90;;;;;;4947182;28;20027;-79
2023/03/06 00:35:26;;;;;;;3.80;3.20;;;-0.80;99.90;;;;;;4941214;29;20059;-78
2023/03/06 00:37:52;;;;;;;4.82;3.45;;;-0.80;99.90;;;;;;4948699;28;20018;-80
2023/03/06 00:40:19;;;;;;;4.28;3.50;;;-0.90;99.90;;;;;;4969462;28;20102;-77
2023/03/06 00:42:45;;;;;;;6.15;3.53;;;-0.90;99.90;;;;;;4963665;28;20017;-80
2023/03/06 00:45:12;;;;;;;4.30;2.80;;;-0.90;99.90;;;;;;4973117;28;20038;-78
2023/03/06 00:47:38;;;;;;;3.88;2.88;;;-0.90;99.90;;;;;;4941642;28;20370;-79
2023/03/06 00:50:05;;;;;;;6.00;2.80;;;-0.90;99.90;;;;;;4948908;28;20027;-78
2023/03/06 00:52:31;;;;;;;5.33;2.97;;;-1.00;99.90;;;;;;4964506;28;20366;-79
2023/03/06 00:54:57;;;;;;;8.35;3.00;;;-1.00;99.90;;;;;;4962527;28;20515;-78
2023/03/06 00:57:23;;;;;;;3.70;2.47;;;-1.00;99.90;;;;;;4942987;29;20031;-79
2023/03/06 00:59:51;;;;;;;3.83;2.50;;;-1.00;99.90;;;;;;4961355;28;20110;-78
2023/03/06 01:02:17;;;;;;;9.32;3.63;;;-1.00;99.90;;;;;;4959452;28;20082;-79
2023/03/06 01:04:43;;;;;;;6.50;2.95;;;-1.00;99.90;;;;;;4963253;28;20484;-77
2023/03/06 01:07:09;;;;;;;5.90;3.20;;;-0.90;99.90;;;;;;4959812;28;20098;-79
2023/03/06 01:09:35;;;;;;;6.95;3.60;;;-0.90;99.90;;;;;;4963841;28;20031;-78
2023/03/06 01:12:01;;;;;;;6.97;3.00;;;-0.90;99.90;;;;;;4964940;28;20045;-78
2023/03/06 01:14:27;;;;;;;5.10;3.13;;;-0.90;99.90;;;;;;4965077;28;20027;-80
2023/03/06 01:16:53;;;;;;;5.25;3.67;;;-0.90;99.90;;;;;;4939068;28;20034;-78
2023/03/06 01:19:19;;;;;;;5.25;3.88;;;-0.90;99.90;;;;;;4939284;29;20015;-79
2023/03/06 01:21:45;;;;;;;4.55;2.97;;;-0.90;99.90;;;;;;4960766;28;20031;-78
2023/03/06 01:24:11;;;;;;;4.53;3.63;;;-0.90;99.90;;;;;;4962037;28;20027;-79
2023/03/06 01:26:37;;;;;;;5.15;3.65;;;-0.90;99.90;;;;;;4957375;28;20129;-78
2023/03/06 01:29:03;;;;;;;4.78;3.25;;;-0.90;99.90;;;;;;4956665;28;20054;-79
2023/03/06 01:31:29;;;;;;;4.60;3.22;;;-0.90;99.90;;;;;;4940617;29;20453;-79
2023/03/06 01:33:54;;;;;;;6.20;3.60;;;-0.90;99.90;;;;;;4959126;28;20098;-78
2023/03/06 01:36:20;;;;;;;5.97;3.03;;;-1.00;99.90;;;;;;4959141;28;20578;-80
2023/03/06 01:38:46;;;;;;;5.10;2.92;;;-1.00;99.90;;;;;;4963120;28;20034;-79
2023/03/06 01:41:14;;;;;;;6.57;3.70;;;-1.00;99.90;;;;;;4968420;28;20377;-79
2023/03/06 01:43:43;;;;;;;5.97;3.55;;;-1.00;99.90;;;;;;4962802;28;20199;-79
2023/03/06 01:46:27;;;;;;;4.63;3.47;;;-1.00;99.90;;;;;;4961208;28;20024;-79
2023/03/06 01:49:05;;;;;;;6.43;3.17;;;-1.10;99.90;;;;;;4966054;28;20026;-79
2023/03/06 01:51:54;;;;;;;4.22;3.70;;;-1.10;99.90;;;;;;4959297;28;20035;-78
2023/03/06 01:54:40;;;;;;;4.72;3.22;;;-1.10;99.90;;;;;;4963819;28;20019;-78
2023/03/06 01:57:13;;;;;;;4.45;3.53;;;-1.10;99.90;;;;;;4944418;28;20141;-79
2023/03/06 01:59:41;;;;;;;7.32;4.97;;;-1.10;99.90;;;;;;4956421;28;20027;-78
2023/03/06 02:02:10;;;;;;;6.20;3.65;;;-1.10;99.90;;;;;;4958183;28;20026;-79
2023/03/06 02:04:39;;;;;;;4.45;3.20;;;-1.00;99.90;;;;;;4965441;28;20037;-78
2023/03/06 02:07:06;;;;;;;4.90;3.83;;;-1.10;99.90;;;;;;4965916;28;20440;-80
2023/03/06 02:09:33;;;;;;;4.72;3.90;;;-1.00;99.90;;;;;;4967516;28;20046;-79
2023/03/06 02:12:07;;;;;;;5.65;3.05;;;-1.10;99.90;;;;;;4966596;28;20034;-78
2023/03/06 02:14:34;;;;;;;4.45;3.42;;;-1.10;99.90;;;;;;4963567;28;20082;-78
2023/03/06 02:17:00;;;;;;;6.78;3.85;;;-1.10;99.90;;;;;;4955351;28;20037;-78
2023/03/06 02:19:56;;;;;;;6.55;3.78;;;-1.10;99.90;;;;;;4960409;29;20027;-78
2023/03/06 02:22:24;;;;;;;6.60;4.25;;;-1.20;99.90;;;;;;4969867;28;20038;-78
2023/03/06 02:24:57;;;;;;;4.97;3.28;;;-1.20;99.90;;;;;;4956590;28;20063;-79
2023/03/06 02:27:24;;;;;;;7.43;4.20;;;-1.20;99.90;;;;;;4957111;28;20045;-77
2023/03/06 02:29:50;;;;;;;4.50;3.70;;;-1.20;99.90;;;;;;4953978;28;20062;-79
2023/03/06 02:32:16;;;;;;;5.72;4.20;;;-1.20;99.90;;;;;;4957128;28;20554;-78
2023/03/06 02:34:52;;;;;;;5.57;3.88;;;-1.30;99.90;;;;;;4956479;28;20110;-78
2023/03/06 02:37:19;;;;;;;4.32;3.05;;;-1.30;99.90;;;;;;4959317;28;20019;-79
2023/03/06 02:39:58;;;;;;;6.47;4.03;;;-1.30;99.90;;;;;;4957230;28;20023;-80
2023/03/06 02:42:27;;;;;;;9.40;3.60;;;-1.40;99.90;;;;;;4962207;28;20027;-79
2023/03/06 02:44:56;;;;;;;5.95;3.90;;;-1.30;99.90;;;;;;4941718;29;20028;-77
2023/03/06 02:47:21;;;;;;;5.45;3.72;;;-1.30;99.90;;;;;;4960423;28;20039;-79
2023/03/06 02:49:47;;;;;;;5.47;3.70;;;-1.30;99.90;;;;;;4975856;28;20039;-79
2023/03/06 02:52:13;;;;;;;7.78;4.57;;;-1.30;99.90;;;;;;4965416;28;20020;-77
2023/03/06 02:54:39;;;;;;;5.97;3.30;;;-1.20;99.90;;;;;;4958388;28;20098;-78
2023/03/06 02:57:05;;;;;;;5.30;3.97;;;-1.20;99.90;;;;;;4957080;28;20024;-79
2023/03/06 02:59:31;;;;;;;8.07;3.72;;;-1.20;99.90;;;;;;4951303;28;20023;-78
2023/03/06 03:01:57;;;;;;;8.15;4.30;;;-1.20;99.90;;;;;;4957567;28;20107;-79
2023/03/06 03:04:23;;;;;;;8.00;4.65;;;-1.30;99.90;;;;;;4961736;28;20491;-79
2023/03/06 03:06:48;;;;;;;6.10;4.90;;;-1.30;99.90;;;;;;4940726;29;20034;-78
2023/03/06 03:09:14;;;;;;;7.70;4.00;;;-1.40;99.90;;;;;;4962030;28;20054;-78
2023/03/06 03:11:40;;;;;;;8.52;5.90;;;-1.40;99.90;;;;;;4962049;28;20034;-79
2023/03/06 03:14:06;;;;;;;6.75;4.90;;;-1.40;99.90;;;;;;4969091;28;20023;-78
2023/03/06 03:16:32;;;;;;;6.50;4.45;;;-1.40;99.90;;;;;;4954510;28;20094;-79
2023/03/06 03:18:58;;;;;;;6.35;4.55;;;-1.40;99.90;;;;;;4954902;28;20074;-80
2023/03/06 03:21:23;;;;;;;5.57;3.95;;;-1.40;99.90;;;;;;4955400;28;20448;-79
2023/03/06 03:23:49;;;;;;;5.82;4.97;;;-1.40;99.90;;;;;;4940107;28;20050;-78
2023/03/06 03:26:18;;;;;;;9.50;6.07;;;-1.40;99.90;;;;;;4938750;29;20032;-80
2023/03/06 03:28:44;;;;;;;12.80;7.57;;;-1.40;99.90;;;;;;4944648;28;20448;-77
2023/03/06 03:31:11;;;;;;;10.55;5.22;;;-1.40;99.90;;;;;;4959148;28;20086;-79
2023/03/06 03:33:38;;;;;;;8.60;6.35;;;-1.40;99.90;;;;;;4948174;28;20492;-78
2023/03/06 03:36:06;;;;;;;10.23;5.53;;;-1.40;99.90;;;;;;4962283;28;20031;-79
2023/03/06 03:38:32;;;;;;;9.27;5.35;;;-1.40;99.90;;;;;;4961630;28;20093;-78
2023/03/06 03:41:01;;;;;;;7.07;5.43;;;-1.50;99.90;;;;;;4945038;28;20066;-79
2023/03/06 03:43:27;;;;;;;7.75;5.10;;;-1.50;99.90;;;;;;4961614;28;20276;-79
2023/03/06 03:45:53;;;;;;;10.85;5.93;;;-1.60;99.90;;;;;;4965641;28;20026;-77
2023/03/06 03:48:19;;;;;;;9.75;5.82;;;-1.60;99.90;;;;;;4963638;28;20034;-79
2023/03/06 03:50:45;;;;;;;9.70;5.35;;;-1.60;99.90;;;;;;4968689;28;20082;-79
2023/03/06 03:53:11;;;;;;;10.70;6.40;;;-1.60;99.90;;;;;;4965259;28;20055;-79
2023/03/06 03:55:37;;;;;;;9.27;5.10;;;-1.60;99.90;;;;;;4970240;28;20027;-79
2023/03/06 03:58:03;;;;;;;9.18;5.47;;;-1.60;99.90;;;;;;4964610;28;20019;-81
2023/03/06 04:00:29;;;;;;;11.73;5.18;;;-1.60;99.90;;;;;;4949780;28;20030;-79
2023/03/06 04:02:55;;;;;;;8.55;6.00;;;-1.60;99.90;;;;;;4966896;28;20504;-79
2023/03/06 04:05:21;;;;;;;9.95;6.10;;;-1.70;99.90;;;;;;4966636;28;20050;-79
2023/03/06 04:07:46;;;;;;;9.45;6.05;;;-1.70;99.90;;;;;;4952330;28;20081;-79
2023/03/06 04:10:13;;;;;;;11.15;6.80;;;-1.70;99.90;;;;;;4967088;28;20063;-79
2023/03/06 04:12:38;;;;;;;11.30;5.80;;;-1.60;99.90;;;;;;4971664;28;20398;-80
2023/03/06 04:15:06;;;;;;;9.20;6.25;;;-1.70;99.90;;;;;;4961808;28;20031;-79
2023/03/06 04:17:33;;;;;;;9.38;5.63;;;-1.70;99.90;;;;;;4957445;28;20456;-80
2023/03/06 04:20:00;;;;;;;8.95;5.55;;;-1.60;99.90;;;;;;4958182;28;20378;-78
2023/03/06 04:22:27;;;;;;;10.85;6.38;;;-1.60;99.90;;;;;;4941303;28;20027;-80
2023/03/06 04:24:53;;;;;;;9.20;6.60;;;-1.60;99.90;;;;;;4941125;29;20412;-79
2023/03/06 04:27:18;;;;;;;9.98;6.03;;;-1.70;99.90;;;;;;4943685;29;20020;-80
2023/03/06 04:29:44;;;;;;;8.32;5.43;;;-1.60;99.90;;;;;;4958459;28;20500;-79
2023/03/06 04:32:10;;;;;;;9.48;6.93;;;-1.60;99.90;;;;;;4943318;28;20027;-80
2023/03/06 04:34:37;;;;;;;9.73;6.07;;;-1.60;99.90;;;;;;4958956;28;20050;-81
2023/03/06 04:37:03;;;;;;;8.52;5.50;;;-1.50;99.90;;;;;;4959540;28;20020;-80
2023/03/06 04:39:29;;;;;;;9.77;6.65;;;-1.50;99.90;;;;;;4959332;28;20050;-80
2023/03/06 04:41:55;;;;;;;7.88;5.88;;;-1.50;99.90;;;;;;4959708;28;20031;-80
2023/03/06 04:44:20;;;;;;;9.80;5.97;;;-1.40;99.90;;;;;;4963291;28;20027;-81
2023/03/06 04:46:46;;;;;;;9.68;5.55;;;-1.50;99.90;;;;;;4962857;28;20034;-80
2023/03/06 04:49:12;;;;;;;16.73;9.07;;;-1.40;99.90;;;;;;4964674;28;20027;-81
2023/03/06 04:51:38;;;;;;;11.00;6.50;;;-1.40;99.90;;;;;;4967891;29;20401;-78
2023/03/06 04:54:04;;;;;;;11.07;6.50;;;-1.40;99.90;;;;;;4983598;28;20026;-79
2023/03/06 04:56:30;;;;;;;14.00;6.90;;;-1.30;99.90;;;;;;4981236;28;20042;-79
2023/03/06 04:58:56;;;;;;;8.20;6.15;;;-1.30;99.90;;;;;;4969421;28;20708;-78
2023/03/06 05:01:22;;;;;;;13.05;7.10;;;-1.30;99.90;;;;;;4967573;28;20085;-79
2023/03/06 05:03:48;;;;;;;12.00;7.00;;;-1.30;99.90;;;;;;4967495;28;20019;-78
2023/03/06 05:06:17;;;;;;;10.82;6.18;;;-1.30;99.90;;;;;;4949919;28;20027;-81
2023/03/06 05:08:42;;;;;;;10.02;6.78;;;-1.30;99.90;;;;;;4946622;28;20556;-80
2023/03/06 05:11:08;;;;;;;8.93;6.28;;;-1.30;99.90;;;;;;4967892;28;20074;-79
2023/03/06 05:13:34;;;;;;;11.32;7.55;;;-1.30;99.90;;;;;;4952807;28;20074;-80
2023/03/06 05:16:02;;;;;;;14.52;7.45;;;-1.20;99.90;;;;;;4958255;28;20030;-80
2023/03/06 05:18:27;;;;;;;;;;;-1.20;99.90;;;;;;4957414;28;20019;-79
2023/03/06 05:20:58;;;;;;;11.60;6.80;;;-1.10;99.90;;;;;;4956627;28;19916;-79
2023/03/06 05:23:27;;;;;;;10.98;6.85;;;-1.00;99.90;;;;;;4957585;28;20042;-80
2023/03/06 05:25:53;;;;;;;9.95;5.78;;;-1.00;99.90;;;;;;4957026;28;20401;-81
2023/03/06 05:28:20;;;;;;;9.52;6.20;;;-0.90;99.90;;;;;;4940453;28;20026;-79
2023/03/06 05:30:49;;;;;;;13.00;6.30;;;-0.80;99.90;;;;;;4958161;28;20059;-79
2023/03/06 05:33:14;;;;;;;8.15;5.97;;;-0.70;99.90;;;;;;4956045;28;20027;-79
2023/03/06 05:35:46;;;;;;;9.05;6.18;;;-0.70;99.90;;;;;;4960384;28;20090;-78
2023/03/06 05:38:12;;;;;;;9.25;5.75;;;-0.60;99.90;;;;;;4961461;28;20497;-78
2023/03/06 05:40:42;;;;;;;12.82;5.72;;;-0.60;99.90;;;;;;4963261;28;20027;-78
2023/03/06 05:43:10;;;;;;;7.90;5.57;;;-0.60;99.90;;;;;;4961082;28;20169;-77
2023/03/06 05:45:39;;;;;;;9.90;6.88;;;-0.50;99.90;;;;;;4961972;28;20023;-79
2023/03/06 05:48:06;;;;;;;9.18;5.43;;;-0.50;99.90;;;;;;4959517;28;20026;-77
2023/03/06 05:50:32;;;;;;;8.53;6.03;;;-0.60;99.90;;;;;;4960223;28;20070;-79
2023/03/06 05:52:58;;;;;;;11.65;6.82;;;-0.60;99.90;;;;;;4960470;28;20020;-78
2023/03/06 05:55:24;;;;;;;9.80;5.88;;;-0.60;99.90;;;;;;4959425;28;20138;-79
2023/03/06 05:57:52;;;;;;;7.80;5.38;;;-0.60;99.90;;;;;;4964288;28;20035;-79
2023/03/06 06:00:18;;;;;;;;;;;-0.60;99.90;;;;;;4958174;28;20023;-80
2023/03/06 06:02:44;;;;;;;9.10;5.60;;;-0.60;99.90;;;;;;4967516;28;19910;-80
2023/03/06 06:05:11;;;;;;;7.60;5.50;;;-0.70;99.90;;;;;;4962162;28;20031;-78
2023/03/06 06:07:37;;;;;;;10.07;5.53;;;-0.70;99.90;;;;;;4961302;28;20019;-78
2023/03/06 06:10:05;;;;;;;12.25;6.05;;;-0.60;99.90;;;;;;4964397;28;20126;-81
2023/03/06 06:12:31;;;;;;;12.25;5.85;;;-0.50;99.90;;;;;;4970659;28;20022;-79
2023/03/06 06:14:57;;;;;;;15.25;6.13;;;-0.40;99.90;;;;;;4958243;28;20399;-79
2023/03/06 06:17:23;;;;;;;10.20;5.70;;;-0.20;99.90;;;;;;4957237;28;20107;-77
2023/03/06 06:19:48;;;;;;;8.43;5.63;;;-0.10;99.90;;;;;;4964819;28;20424;-79
2023/03/06 06:22:14;;;;;;;11.23;5.65;;;0.10;99.90;;;;;;4957612;28;20055;-80
2023/03/06 06:24:40;;;;;;;10.07;5.78;;;0.20;99.90;;;;;;4959964;28;20523;-81
2023/03/06 06:27:07;;;;;;;8.43;4.88;;;0.30;99.90;;;;;;4955428;28;20059;-80
2023/03/06 06:29:33;;;;;;;9.30;4.87;;;0.30;99.90;;;;;;4953174;28;20102;-80
2023/03/06 06:31:59;;;;;;;7.63;5.00;;;0.30;99.90;;;;;;4955324;28;20031;-80
2023/03/06 06:34:26;;;;;;;10.03;5.03;;;0.30;99.90;;;;;;4962606;28;20023;-79
2023/03/06 06:36:53;;;;;;;7.10;4.70;;;0.30;99.90;;;;;;4954888;28;20027;-80
2023/03/06 06:39:20;;;;;;;10.50;4.97;;;0.30;99.90;;;;;;4953964;28;20023;-79
2023/03/06 06:41:50;;;;;;;8.00;4.63;;;0.30;99.90;;;;;;4954203;28;20094;-79
2023/03/06 06:44:17;;;;;;;7.43;4.75;;;0.30;99.90;;;;;;4956388;28;20023;-78
2023/03/06 06:46:45;;;;;;;7.93;4.93;;;0.30;99.90;;;;;;4964291;28;20101;-79
2023/03/06 06:49:12;;;;;;;8.57;4.10;;;0.30;99.90;;;;;;4970346;28;20076;-80
2023/03/06 06:51:38;;;;;;;8.10;3.97;;;0.30;99.90;;;;;;4970577;28;20064;-81
2023/03/06 06:54:05;;;;;;;7.10;5.35;;;0.30;99.90;;;;;;4963029;28;20023;-81
2023/03/06 06:56:31;;;;;;;10.40;4.57;;;0.30;99.90;;;;;;4965500;29;20091;-80
2023/03/06 06:59:00;;;;;;;10.05;4.20;;;0.30;99.90;;;;;;4974484;29;20035;-80
2023/03/06 07:01:27;;;;;;;6.10;3.78;;;0.20;99.90;;;;;;4971422;28;20046;-82
2023/03/06 07:03:52;;;;;;;6.72;3.97;;;0.20;99.90;;;;;;4956837;28;20452;-80
2023/03/06 07:06:18;;;;;;;6.10;3.33;;;0.30;99.90;;;;;;4959945;28;20046;-80
2023/03/06 07:08:44;;;;;;;7.18;3.88;;;0.30;99.90;;;;;;4964791;28;20023;-79
2023/03/06 07:11:13;;;;;;;9.02;3.30;;;0.30;99.90;;;;;;4964362;28;20122;-79
2023/03/06 07:13:39;;;;;;;5.70;3.08;;;0.20;99.90;;;;;;4976861;28;20026;-81
2023/03/06 07:16:06;;;;;;;3.78;2.80;;;0.20;99.90;;;;;;4979950;28;20120;-80
2023/03/06 07:18:32;;;;;;;6.15;3.13;;;0.20;99.90;;;;;;4965573;28;20499;-78
2023/03/06 07:20:58;;;;;;;6.18;3.28;;;0.20;99.90;;;;;;4957950;28;20051;-83
2023/03/06 07:23:25;;;;;;;6.43;3.33;;;0.20;99.60;;;;;;4961851;28;20035;-84
2023/03/06 07:25:54;;;;;;;8.90;4.88;;;0.30;99.70;;;;;;4960192;28;20047;-82
2023/03/06 07:28:23;;;;;;;5.45;3.58;;;0.40;99.70;;;;;;4974049;28;20038;-83
2023/03/06 07:30:49;;;;;;;4.43;2.70;;;0.40;99.30;;;;;;4978667;28;20070;-83
2023/03/06 07:33:15;;;;;;;4.43;3.45;;;0.50;99.50;;;;;;4976836;29;20014;-83
2023/03/06 07:35:42;;;;;;;10.57;3.33;;;0.40;99.00;;;;;;4969036;28;20032;-82
2023/03/06 07:38:08;;;;;;;5.05;2.78;;;0.40;98.60;;;;;;4951629;29;20023;-82
2023/03/06 07:40:35;;;;;;;5.67;3.70;;;0.30;98.40;;;;;;4963443;28;20110;-84
2023/03/06 07:43:00;;;;;;;6.43;3.45;;;0.30;98.30;;;;;;4945878;29;20497;-85
2023/03/06 07:45:27;;;;;;;4.40;3.03;;;0.40;98.20;;;;;;4949074;29;20038;-80
2023/03/06 07:47:53;;;;;;;4.85;2.88;;;0.40;98.60;;;;;;4962713;28;20054;-83
2023/03/06 07:50:20;;;;;;;5.28;2.92;;;0.50;98.40;;;;;;4944558;29;20103;-84
2023/03/06 07:52:47;;;;;;;5.63;2.60;;;0.40;98.00;;;;;;4946773;29;20027;-84
2023/03/06 07:55:13;;;;;;;6.25;2.97;;;0.40;97.70;;;;;;4948005;29;20023;-85
2023/03/06 07:57:40;;;;;;;2.78;2.38;;;0.50;97.80;;;;;;4965405;29;20087;-85
2023/03/06 08:00:09;;;;;;;7.53;3.15;;;0.60;97.50;;;;;;4946366;29;20508;-86
2023/03/06 08:02:36;;;;;;;6.25;3.53;;;0.60;97.30;;;;;;4947033;29;20117;-86
2023/03/06 08:05:02;;;;;;;6.00;2.90;;;0.60;97.50;;;;;;4931921;29;20027;-86
2023/03/06 08:07:28;;;;;;;5.45;3.03;;;0.70;97.40;;;;;;4962267;29;20071;-88
2023/03/06 08:09:57;;;;;;;10.25;5.20;;;0.70;96.90;;;;;;4947060;29;20094;-86
2023/03/06 08:12:23;;;;;;;4.22;2.70;;;0.70;96.70;;;;;;4952506;28;20043;-82
2023/03/06 08:14:52;;;;;;;3.35;2.40;;;0.70;96.50;;;;;;4972337;28;20499;-85
2023/03/06 08:17:18;;;;;;;3.60;2.25;;;0.60;96.00;;;;;;4960641;28;20025;-85
2023/03/06 08:19:44;;;;;;;4.13;3.10;;;0.70;96.00;;;;;;4968625;28;20506;-88
2023/03/06 08:22:14;;;;;;;4.95;2.90;;;0.80;95.90;;;;;;4965168;28;20050;-86
2023/03/06 08:24:40;;;;;;;4.00;3.17;;;0.90;95.90;;;;;;4955945;29;20366;-85
2023/03/06 08:27:06;;;;;;;5.13;2.90;;;1.00;95.70;;;;;;4943068;29;20039;-86
2023/03/06 08:29:32;;;;;;;4.32;2.60;;;1.00;95.40;;;;;;4967608;28;20380;-84
2023/03/06 08:31:58;;;;;;;4.68;2.63;;;1.00;95.20;;;;;;4961086;28;20042;-86
2023/03/06 08:34:24;;;;;;;9.45;2.35;;;0.90;95.10;;;;;;4966539;28;20030;-83
2023/03/06 08:36:53;;;;;;;3.97;2.72;;;0.90;94.80;;;;;;4948374;29;20397;-85
2023/03/06 08:39:20;;;;;;;5.40;3.72;;;0.90;94.90;;;;;;4969569;28;20109;-85
2023/03/06 08:41:46;;;;;;;3.20;2.80;;;0.70;94.80;;;;;;4948388;29;20114;-85
2023/03/06 08:44:12;;;;;;;3.15;2.33;;;0.60;94.80;;;;;;4961006;29;20032;-85
2023/03/06 08:46:38;;;;;;;3.83;2.65;;;0.60;94.80;;;;;;4968077;29;20038;-87
2023/03/06 08:49:04;;;;;;;8.10;3.25;;;0.60;94.80;;;;;;4942141;28;20024;-85
2023/03/06 08:51:30;;;;;;;4.20;2.65;;;0.60;94.90;;;;;;4965562;28;20027;-86
2023/03/06 08:53:57;;;;;;;5.63;3.17;;;0.60;94.90;;;;;;4976175;28;20025;-83
2023/03/06 08:56:27;;;;;;;5.90;3.80;;;0.70;94.90;;;;;;4945077;28;20098;-84
2023/03/06 08:58:54;;;;;;;4.53;2.25;;;0.60;94.60;;;;;;4951243;29;20024;-86
2023/03/06 09:01:26;;;;;;;3.70;2.47;;;0.60;94.50;;;;;;4956996;29;20059;-83
2023/03/06 09:03:58;;;;;;;2.08;1.88;;;0.70;94.50;;;;;;4974112;28;20425;-84
2023/03/06 09:06:26;;;;;;;5.75;3.40;;;0.80;94.60;;;;;;4956795;28;20477;-83
2023/03/06 09:08:52;;;;;;;4.22;2.53;;;0.90;94.80;;;;;;4975499;28;20114;-84
2023/03/06 09:11:20;;;;;;;2.93;2.37;;;1.20;95.30;;;;;;4947226;28;20186;-83
2023/03/06 09:13:46;;;;;;;2.40;1.88;;;1.30;95.20;;;;;;4969802;28;20734;-86
2023/03/06 09:16:12;;;;;;;3.08;1.85;;;1.10;94.90;;;;;;4949281;28;20070;-88
2023/03/06 09:18:39;;;;;;;9.43;3.17;;;0.90;95.20;;;;;;4980042;28;20034;-86
2023/03/06 09:21:07;;;;;;;4.93;3.88;;;0.80;95.30;;;;;;4961297;28;20034;-85
2023/03/06 09:23:33;;;;;;;4.28;2.38;;;0.80;95.70;;;;;;4948388;29;20023;-85
2023/03/06 09:26:00;;;;;;;2.97;1.95;;;0.80;95.70;;;;;;4954112;28;20110;-86
2023/03/06 09:28:26;;;;;;;2.63;2.17;;;0.90;95.60;;;;;;4960927;28;20016;-86
2023/03/06 09:30:52;;;;;;;5.90;2.90;;;0.90;95.80;;;;;;4956616;29;20071;-88
2023/03/06 09:33:19;;;;;;;5.40;2.47;;;0.90;95.90;;;;;;4965564;28;20026;-85
2023/03/06 09:35:54;;;;;;;9.07;2.08;;;1.00;95.90;;;;;;4962194;28;20055;-89
2023/03/06 09:38:21;;;;;;;4.70;1.83;;;1.00;95.70;;;;;;4946824;28;20023;-84
2023/03/06 09:40:58;;;;;;;5.20;2.22;;;1.00;95.70;;;;;;4954571;28;20023;-92
2023/03/06 09:43:34;;;;;;;;;;;0.90;95.80;;;;;;4944505;29;20106;-89
2023/03/06 09:46:05;;;;;;;7.03;1.98;;;0.80;96.20;;;;;;4965313;28;19907;-91
2023/03/06 09:49:00;;;;;;;5.10;2.20;;;0.80;96.30;;;;;;4943678;28;20022;-88
2023/03/06 09:51:58;;;;;;;4.00;2.50;;;0.70;96.20;;;;;;4941990;28;20046;-87
2023/03/06 09:55:04;;;;;;;3.45;2.03;;;0.80;96.30;;;;;;4923663;28;20066;-92
2023/03/06 09:57:36;;;;;;;5.85;3.00;;;0.80;96.30;;;;;;4956512;29;20090;-91
2023/03/06 10:00:14;;;;;;;3.75;1.88;;;0.80;96.30;;;;;;4971852;28;20081;-90
2023/03/06 10:02:57;;;;;;;6.88;2.53;;;0.90;96.00;;;;;;4934735;28;20492;-88
2023/03/06 10:05:30;;;;;;;6.55;2.97;;;1.00;95.80;;;;;;4949952;29;20118;-87
2023/03/06 10:08:18;;;;;;;3.58;2.40;;;1.10;95.50;;;;;;4971481;28;20027;-89
2023/03/06 10:10:52;;;;;;;4.72;1.98;;;1.00;94.70;;;;;;4965338;29;20035;-88
2023/03/06 10:13:35;;;;;;;3.92;1.90;;;1.00;94.90;;;;;;4973489;28;20030;-88
2023/03/06 10:16:21;;;;;;;3.10;2.05;;;1.20;94.80;;;;;;4979707;28;20051;-87
2023/03/06 10:18:53;;;;;;;4.88;2.03;;;1.30;94.90;;;;;;4969163;28;20023;-86
2023/03/06 10:21:32;;;;;;;4.30;1.92;;;1.60;94.50;;;;;;4972215;28;20453;-84
2023/03/06 10:24:24;;;;;;;2.08;1.88;;;1.70;93.90;;;;;;4985173;28;20023;-85
2023/03/06 10:27:22;;;;;;;2.53;1.58;;;1.70;93.70;;;;;;4962555;28;20051;-86
2023/03/06 10:29:54;;;;;;;3.30;2.42;;;1.70;93.50;;;;;;4923817;29;20106;-83
2023/03/06 10:32:28;;;;;;;3.17;2.10;;;1.70;93.40;;;;;;4932398;29;21088;-82
2023/03/06 10:34:58;;;;;;;5.40;3.38;;;1.70;93.00;;;;;;4971397;29;20405;-82
2023/03/06 10:37:24;;;;;;;2.70;1.48;;;1.50;93.00;;;;;;4966531;28;20060;-84
2023/03/06 10:40:02;;;;;;;2.60;2.22;;;1.50;93.10;;;;;;4966241;28;20042;-85
2023/03/06 10:42:29;;;;;;;4.53;2.60;;;1.50;93.10;;;;;;4949068;29;20441;-87
2023/03/06 10:45:11;;;;;;;6.93;3.03;;;1.50;93.10;;;;;;4946675;29;20412;-85
2023/03/06 10:47:39;;;;;;;2.83;1.77;;;1.70;92.90;;;;;;4959344;29;20038;-84
2023/03/06 10:50:17;;;;;;;1.83;1.60;;;1.90;92.60;;;;;;4959622;29;20121;-86
2023/03/06 10:52:43;;;;;;;3.10;2.05;;;2.00;92.20;;;;;;4928010;29;20024;-86
2023/03/06 10:55:29;;;;;;;3.60;1.70;;;1.80;91.60;;;;;;4936477;29;20023;-85
2023/03/06 10:57:55;;;;;;;2.50;1.65;;;1.80;91.70;;;;;;4957153;29;20019;-85
2023/03/06 11:00:35;;;;;;;3.42;1.30;;;1.80;91.60;;;;;;4945175;29;20035;-85
2023/03/06 11:03:04;;;;;;;2.08;1.00;;;2.10;91.40;;;;;;4942631;29;20031;-86
2023/03/06 11:05:30;;;;;;;1.85;0.90;;;2.60;90.40;;;;;;4936183;29;20039;-85
2023/03/06 11:07:59;;;;;;;2.20;1.58;;;2.50;89.00;;;;;;4924708;29;20024;-85
2023/03/06 11:10:26;;;;;;;4.78;1.40;;;2.10;90.60;;;;;;4957598;29;20048;-88
2023/03/06 11:12:58;;;;;;;3.28;1.38;;;1.60;92.20;;;;;;4935674;29;20063;-85
2023/03/06 11:15:26;;;;;;;2.97;2.15;;;1.30;93.60;;;;;;4961020;29;20031;-85
2023/03/06 11:18:20;;;;;;;;;;;1.30;94.40;;;;;;4920085;29;20044;-87
2023/03/06 11:20:50;;;;;;;5.15;1.95;;;1.20;95.10;;;;;;4952597;29;19906;-84
2023/03/06 11:23:49;;;;;;;2.63;1.77;;;1.10;95.70;;;;;;4955394;29;20028;-92
2023/03/06 11:26:50;;;;;;;5.55;2.22;;;1.10;96.40;;;;;;4886297;29;20037;-90
2023/03/06 11:29:40;;;;;;;7.78;4.22;;;1.20;96.50;;;;;;4856819;29;20072;-91
2023/03/06 11:32:37;;;;;;;2.78;1.75;;;1.20;96.80;;;;;;4916301;29;20040;-90
2023/03/06 11:35:26;;;;;;;3.95;2.22;;;1.30;96.80;;;;;;4923358;29;20112;-91
2023/03/06 11:38:05;;;;;;;5.30;2.08;;;1.10;96.30;;;;;;4914510;29;20105;-89
2023/03/06 11:40:51;;;;;;;5.22;2.10;;;0.90;96.60;;;;;;4895935;29;20542;-91
2023/03/06 11:43:33;;;;;;;5.25;2.45;;;0.80;96.70;;;;;;4899287;29;20067;-90
2023/03/06 11:46:28;;;;;;;4.15;2.92;;;0.90;97.10;;;;;;4909445;29;20036;-86
2023/03/06 11:49:05;;;;;;;3.38;2.70;;;1.10;97.30;;;;;;4900799;29;20148;-89
2023/03/06 11:51:41;;;;;;;8.70;2.30;;;1.40;97.00;;;;;;4908670;29;20059;-91
2023/03/06 11:54:11;;;;;;;4.28;1.98;;;1.60;96.70;;;;;;4894077;29;20119;-84
2023/03/06 11:57:05;;;;;;;4.10;1.95;;;1.60;95.90;;;;;;4917359;29;20180;-87
2023/03/06 11:59:37;;;;;;;2.63;1.77;;;1.60;95.10;;;;;;4869901;29;20037;-88
2023/03/06 12:02:36;;;;;;;2.95;2.40;;;1.40;94.50;;;;;;4862264;29;20091;-88
2023/03/06 12:05:21;;;;;;;3.60;2.63;;;1.30;94.40;;;;;;4877560;29;20069;-87
2023/03/06 12:08:07;;;;;;;3.08;2.42;;;1.10;94.00;;;;;;4868615;29;20049;-86
2023/03/06 12:10:56;;;;;;;4.40;1.80;;;0.90;93.60;;;;;;4865828;29;20068;-87
2023/03/06 12:13:33;;;;;;;3.05;1.58;;;1.00;93.80;;;;;;4868887;29;20040;-83
2023/03/06 12:16:17;;;;;;;8.60;2.22;;;1.10;93.80;;;;;;4865401;29;20049;-83
2023/03/06 12:19:01;;;;;;;4.30;1.60;;;1.10;93.00;;;;;;4890702;29;20506;-83
2023/03/06 12:21:37;;;;;;;2.92;1.70;;;1.20;92.50;;;;;;4897737;29;20503;-88
2023/03/06 12:24:27;;;;;;;2.67;1.42;;;1.10;92.40;;;;;;4879559;29;20057;-87
2023/03/06 12:27:29;;;;;;;2.33;1.63;;;1.10;92.20;;;;;;4901407;29;20029;-84
2023/03/06 12:30:21;;;;;;;7.13;2.50;;;0.90;91.90;;;;;;4895260;29;20084;-86
2023/03/06 12:33:05;;;;;;;2.80;1.58;;;0.90;92.10;;;;;;4936636;29;20036;-87
2023/03/06 12:35:52;;;;;;;6.03;2.55;;;0.90;92.20;;;;;;4913868;28;20498;-87
2023/03/06 12:38:41;;;;;;;3.65;1.90;;;0.80;92.80;;;;;;4976060;28;20069;-86
2023/03/06 12:41:29;;;;;;;2.17;1.20;;;0.80;93.20;;;;;;4990110;28;20078;-87
2023/03/06 12:44:00;;;;;;;3.28;1.80;;;0.80;93.60;;;;;;4984290;28;20038;-81
2023/03/06 12:46:27;;;;;;;7.47;2.47;;;0.90;94.00;;;;;;4982646;28;20060;-85
2023/03/06 12:49:26;;;;;;;3.47;1.90;;;1.00;94.20;;;;;;4985261;28;20027;-84
2023/03/06 12:51:59;;;;;;;2.85;1.50;;;1.00;94.00;;;;;;4964996;29;20042;-85
2023/03/06 12:54:29;;;;;;;2.10;1.15;;;0.90;93.70;;;;;;4965255;28;20098;-85
2023/03/06 12:56:59;;;;;;;2.20;2.00;;;0.70;93.90;;;;;;4974791;28;20023;-84
2023/03/06 12:59:43;;;;;;;2.88;1.95;;;0.60;93.70;;;;;;4972228;28;20027;-83
2023/03/06 13:02:33;;;;;;;3.97;1.73;;;0.50;93.90;;;;;;4972542;28;20034;-84
2023/03/06 13:05:03;;;;;;;4.78;2.35;;;0.50;94.00;;;;;;4970901;28;20027;-88
2023/03/06 13:07:37;;;;;;;5.72;2.40;;;0.40;94.00;;;;;;4957254;29;20091;-86
2023/03/06 13:10:23;;;;;;;2.50;1.92;;;0.40;94.10;;;;;;4967085;28;20020;-88